createdAt,value
2018-02-10T00:00:45.938Z,15.90
2018-02-10T00:02:49.294Z,15.90
2018-02-10T00:04:52.519Z,15.90
2018-02-10T00:06:55.888Z,15.90
2018-02-10T00:08:59.635Z,15.90
2018-02-10T00:11:03.026Z,15.90
2018-02-10T00:13:06.393Z,15.80
2018-02-10T00:15:09.810Z,15.80
2018-02-10T00:17:13.186Z,15.80
2018-02-10T00:19:17.447Z,15.80
2018-02-10T00:21:21.589Z,15.80
2018-02-10T00:23:25.040Z,15.80
2018-02-10T00:25:28.468Z,15.70
2018-02-10T00:27:31.948Z,15.70
2018-02-10T00:29:36.321Z,15.70
2018-02-10T00:31:39.721Z,15.70
2018-02-10T00:33:44.042Z,15.70
2018-02-10T00:35:47.490Z,15.70
2018-02-10T00:37:50.888Z,15.70
2018-02-10T00:39:54.639Z,15.70
2018-02-10T00:41:58.025Z,15.70
2018-02-10T00:44:01.394Z,15.60
2018-02-10T00:46:04.869Z,15.60
2018-02-10T00:48:08.234Z,15.60
2018-02-10T00:50:12.374Z,15.60
2018-02-10T00:52:15.842Z,15.60
2018-02-10T00:54:19.234Z,15.60
2018-02-10T00:56:22.916Z,15.60
2018-02-10T00:58:27.077Z,15.50
2018-02-10T01:00:30.599Z,15.50
2018-02-10T01:02:33.988Z,15.50
2018-02-10T01:04:37.205Z,15.50
2018-02-10T01:06:40.657Z,15.50
2018-02-10T01:08:44.902Z,15.50
2018-02-10T01:10:49.109Z,15.40
2018-02-10T01:12:52.586Z,15.40
2018-02-10T01:14:55.997Z,15.50
2018-02-10T01:16:59.348Z,15.50
2018-02-10T01:19:02.729Z,15.40
2018-02-10T01:21:06.159Z,15.40
2018-02-10T01:23:10.345Z,15.40
2018-02-10T01:25:13.735Z,15.40
2018-02-10T01:27:17.137Z,15.40
2018-02-10T01:29:20.573Z,15.40
2018-02-10T01:31:23.993Z,15.40
2018-02-10T01:33:27.364Z,15.40
2018-02-10T01:35:31.503Z,15.30
2018-02-10T01:37:34.932Z,15.30
2018-02-10T01:39:38.320Z,15.30
2018-02-10T01:41:41.705Z,15.30
2018-02-10T01:43:45.086Z,15.30
2018-02-10T01:45:48.447Z,15.30
2018-02-10T01:47:52.588Z,15.30
2018-02-10T01:50:07.594Z,15.30
2018-02-10T01:52:11.755Z,15.20
2018-02-10T01:54:15.142Z,15.30
2018-02-10T01:56:18.513Z,15.20
2018-02-10T01:58:21.958Z,15.20
2018-02-10T02:00:25.323Z,15.20
2018-02-10T02:02:28.721Z,15.20
2018-02-10T02:04:32.894Z,15.20
2018-02-10T02:06:37.045Z,15.20
2018-02-10T02:08:40.460Z,15.20
2018-02-10T02:10:43.832Z,15.20
2018-02-10T02:12:47.209Z,15.20
2018-02-10T02:14:50.612Z,15.20
2018-02-10T02:16:53.990Z,15.20
2018-02-10T02:18:57.441Z,15.20
2018-02-10T02:21:00.824Z,15.10
2018-02-10T02:23:04.211Z,15.10
2018-02-10T02:25:07.583Z,15.10
2018-02-10T02:27:10.979Z,15.10
2018-02-10T02:29:14.381Z,15.10
2018-02-10T02:31:17.764Z,15.10
2018-02-10T02:33:21.161Z,15.10
2018-02-10T02:35:24.549Z,15.10
2018-02-10T02:37:27.926Z,15.10
2018-02-10T02:39:31.341Z,15.10
2018-02-10T02:41:34.727Z,15.10
2018-02-10T02:43:37.926Z,15.10
2018-02-10T02:45:41.322Z,15.10
2018-02-10T02:47:44.694Z,15.10
2018-02-10T02:49:48.121Z,15.10
2018-02-10T02:51:51.564Z,15.20
2018-02-10T02:53:54.977Z,15.20
2018-02-10T02:55:58.386Z,15.20
2018-02-10T02:58:01.780Z,15.30
2018-02-10T03:00:05.200Z,15.30
2018-02-10T03:02:09.351Z,15.40
2018-02-10T03:04:12.724Z,15.40
2018-02-10T03:06:16.105Z,15.40
2018-02-10T03:08:19.527Z,15.50
2018-02-10T03:10:22.921Z,15.50
2018-02-10T03:12:26.331Z,15.60
2018-02-10T03:14:29.721Z,15.60
2018-02-10T03:16:33.137Z,15.60
2018-02-10T03:18:36.513Z,15.70
2018-02-10T03:20:40.644Z,15.70
2018-02-10T03:22:44.042Z,15.70
2018-02-10T03:24:48.197Z,15.80
2018-02-10T03:26:51.606Z,15.80
2018-02-10T03:28:54.977Z,15.80
2018-02-10T03:30:58.356Z,15.80
2018-02-10T03:33:01.740Z,15.90
2018-02-10T03:35:05.129Z,15.90
2018-02-10T03:37:08.525Z,15.90
2018-02-10T03:39:11.899Z,15.80
2018-02-10T03:41:16.049Z,15.90
2018-02-10T03:43:19.468Z,15.90
2018-02-10T03:45:22.876Z,15.90
2018-02-10T03:47:26.266Z,15.90
2018-02-10T03:49:29.657Z,15.90
2018-02-10T03:51:33.050Z,15.90
2018-02-10T03:53:36.468Z,15.90
2018-02-10T03:55:40.600Z,15.90
2018-02-10T03:57:43.971Z,15.90
2018-02-10T03:59:48.102Z,15.90
2018-02-10T04:01:51.475Z,15.90
2018-02-10T04:03:55.617Z,15.90
2018-02-10T04:05:59.034Z,15.80
2018-02-10T04:08:02.428Z,15.90
2018-02-10T04:10:05.904Z,15.90
2018-02-10T04:12:09.283Z,15.80
2018-02-10T04:14:12.663Z,15.80
2018-02-10T04:16:16.022Z,15.80
2018-02-10T04:18:19.390Z,15.70
2018-02-10T04:20:22.757Z,15.70
2018-02-10T04:22:26.125Z,15.70
2018-02-10T04:24:29.562Z,15.70
2018-02-10T04:26:32.949Z,15.60
2018-02-10T04:28:36.325Z,15.60
2018-02-10T04:30:39.787Z,15.60
2018-02-10T04:32:43.912Z,15.50
2018-02-10T04:34:47.308Z,15.50
2018-02-10T04:36:50.672Z,15.50
2018-02-10T04:38:54.810Z,15.40
2018-02-10T04:40:58.216Z,15.40
2018-02-10T04:43:01.570Z,15.40
2018-02-10T04:45:05.710Z,15.40
2018-02-10T04:47:09.067Z,15.40
2018-02-10T04:49:12.455Z,15.40
2018-02-10T04:51:15.809Z,15.40
2018-02-10T04:53:19.976Z,15.30
2018-02-10T04:55:24.189Z,15.30
2018-02-10T04:57:27.571Z,15.30
2018-02-10T04:59:31.711Z,15.30
2018-02-10T05:01:35.076Z,15.30
2018-02-10T05:03:39.247Z,15.30
2018-02-10T05:05:42.632Z,15.20
2018-02-10T05:07:46.113Z,15.20
2018-02-10T05:09:49.601Z,15.20
2018-02-10T05:11:52.964Z,15.20
2018-02-10T05:13:57.106Z,15.10
2018-02-10T05:16:00.470Z,15.20
2018-02-10T05:18:04.605Z,15.10
2018-02-10T05:20:07.968Z,15.10
2018-02-10T05:22:11.429Z,15.10
2018-02-10T05:24:14.804Z,15.10
2018-02-10T05:26:18.179Z,15.00
2018-02-10T05:28:21.545Z,15.00
2018-02-10T05:30:24.969Z,15.00
2018-02-10T05:32:28.362Z,15.00
2018-02-10T05:34:31.753Z,15.00
2018-02-10T05:36:35.151Z,14.90
2018-02-10T05:38:38.562Z,15.00
2018-02-10T05:40:41.956Z,15.00
2018-02-10T05:42:45.331Z,15.00
2018-02-10T05:44:48.707Z,15.10
2018-02-10T05:46:52.090Z,15.10
2018-02-10T05:48:55.491Z,15.10
2018-02-10T05:50:58.874Z,15.20
2018-02-10T05:53:02.247Z,15.30
2018-02-10T05:55:06.409Z,15.40
2018-02-10T05:57:09.763Z,15.40
2018-02-10T05:59:13.162Z,15.50
2018-02-10T06:01:16.586Z,15.60
2018-02-10T06:03:19.946Z,15.70
2018-02-10T06:05:23.310Z,15.80
2018-02-10T06:07:27.486Z,15.90
2018-02-10T06:09:30.855Z,15.90
2018-02-10T06:11:34.240Z,16.00
2018-02-10T06:13:37.615Z,16.00
2018-02-10T06:15:41.066Z,16.10
2018-02-10T06:17:44.450Z,16.10
2018-02-10T06:19:47.814Z,16.10
2018-02-10T06:21:51.081Z,16.20
2018-02-10T06:23:54.459Z,16.20
2018-02-10T06:25:57.901Z,16.20
2018-02-10T06:28:01.397Z,16.20
2018-02-10T06:30:04.776Z,16.20
2018-02-10T06:32:08.184Z,16.20
2018-02-10T06:34:12.559Z,16.20
2018-02-10T06:36:16.905Z,16.20
2018-02-10T06:38:20.294Z,16.20
2018-02-10T06:40:23.837Z,16.20
2018-02-10T06:42:27.245Z,16.10
2018-02-10T06:44:31.402Z,16.10
2018-02-10T06:46:34.829Z,16.10
2018-02-10T06:48:38.193Z,16.10
2018-02-10T06:50:41.626Z,16.00
2018-02-10T06:52:45.048Z,16.00
2018-02-10T06:54:48.715Z,16.00
2018-02-10T06:56:52.964Z,15.90
2018-02-10T06:58:56.328Z,15.90
2018-02-10T07:01:00.449Z,15.90
2018-02-10T07:03:03.874Z,15.80
2018-02-10T07:05:07.261Z,15.80
2018-02-10T07:07:11.592Z,15.80
2018-02-10T07:09:14.998Z,15.70
2018-02-10T07:11:19.157Z,15.70
2018-02-10T07:13:22.546Z,15.70
2018-02-10T07:15:25.922Z,15.70
2018-02-10T07:17:30.061Z,15.70
2018-02-10T07:19:33.500Z,15.70
2018-02-10T07:21:36.938Z,15.70
2018-02-10T07:23:40.360Z,15.80
2018-02-10T07:25:43.753Z,15.80
2018-02-10T07:27:47.160Z,15.90
2018-02-10T07:29:50.626Z,16.10
2018-02-10T07:31:54.061Z,16.20
2018-02-10T07:33:57.482Z,16.30
2018-02-10T07:36:01.054Z,16.40
2018-02-10T07:38:04.438Z,16.50
2018-02-10T07:40:07.833Z,16.60
2018-02-10T07:42:11.977Z,16.80
2018-02-10T07:44:16.115Z,16.90
2018-02-10T07:46:19.775Z,16.90
2018-02-10T07:48:23.144Z,17.00
2018-02-10T07:50:26.572Z,17.10
2018-02-10T07:52:30.397Z,17.20
2018-02-10T07:54:34.048Z,17.30
2018-02-10T07:56:37.503Z,17.40
2018-02-10T07:58:40.968Z,17.50
2018-02-10T08:00:44.441Z,17.60
2018-02-10T08:02:48.756Z,17.70
2018-02-10T08:04:52.909Z,17.80
2018-02-10T08:06:56.298Z,17.80
2018-02-10T08:08:59.743Z,17.80
2018-02-10T08:11:03.417Z,17.90
2018-02-10T08:13:06.815Z,18.00
2018-02-10T08:15:10.190Z,18.10
2018-02-10T08:17:13.592Z,18.10
2018-02-10T08:19:16.954Z,18.20
2018-02-10T08:21:20.338Z,18.20
2018-02-10T08:23:23.853Z,18.30
2018-02-10T08:25:27.257Z,18.30
2018-02-10T08:27:30.706Z,18.40
2018-02-10T08:29:34.176Z,18.40
2018-02-10T08:31:38.510Z,18.40
2018-02-10T08:33:42.157Z,18.40
2018-02-10T08:35:45.434Z,18.40
2018-02-10T08:37:48.828Z,18.40
2018-02-10T08:39:53.010Z,18.50
2018-02-10T08:41:56.430Z,18.50
2018-02-10T08:43:59.842Z,18.50
2018-02-10T08:46:03.902Z,18.60
2018-02-10T08:48:08.279Z,18.60
2018-02-10T08:50:12.031Z,18.60
2018-02-10T08:52:16.503Z,18.60
2018-02-10T08:54:20.693Z,18.60
2018-02-10T08:56:25.058Z,18.70
2018-02-10T08:58:28.810Z,18.70
2018-02-10T09:00:32.190Z,18.80
2018-02-10T09:02:35.649Z,18.80
2018-02-10T09:04:39.060Z,18.80
2018-02-10T09:06:42.434Z,18.90
2018-02-10T09:08:45.830Z,19.00
2018-02-10T09:10:49.199Z,19.00
2018-02-10T09:12:53.753Z,19.00
2018-02-10T09:14:57.315Z,19.00
2018-02-10T09:17:00.871Z,19.00
2018-02-10T09:19:04.267Z,19.10
2018-02-10T09:21:07.676Z,19.20
2018-02-10T09:23:11.059Z,19.20
2018-02-10T09:25:14.466Z,19.20
2018-02-10T09:27:18.667Z,19.20
2018-02-10T09:29:22.053Z,19.20
2018-02-10T09:31:25.634Z,19.20
2018-02-10T09:33:29.046Z,19.20
2018-02-10T09:35:32.915Z,19.20
2018-02-10T09:37:36.342Z,19.20
2018-02-10T09:39:39.734Z,19.20
2018-02-10T09:41:43.358Z,19.20
2018-02-10T09:43:46.798Z,19.20
2018-02-10T09:45:51.016Z,19.20
2018-02-10T09:47:54.595Z,19.20
2018-02-10T09:49:58.495Z,19.20
2018-02-10T09:52:01.950Z,19.20
2018-02-10T09:54:05.309Z,19.10
2018-02-10T09:56:10.141Z,19.10
2018-02-10T09:58:13.560Z,19.10
2018-02-10T10:00:17.058Z,19.10
2018-02-10T10:02:21.282Z,19.10
2018-02-10T10:04:24.737Z,19.10
2018-02-10T10:06:28.569Z,19.10
2018-02-10T10:08:32.222Z,19.10
2018-02-10T10:10:36.880Z,19.10
2018-02-10T10:12:40.276Z,19.00
2018-02-10T10:14:43.846Z,19.00
2018-02-10T10:16:47.373Z,19.00
2018-02-10T10:18:51.485Z,19.00
2018-02-10T10:20:55.899Z,18.90
2018-02-10T10:23:00.325Z,18.80
2018-02-10T10:25:04.657Z,18.70
2018-02-10T10:27:08.570Z,18.70
2018-02-10T10:29:11.971Z,18.60
2018-02-10T10:31:15.375Z,18.60
2018-02-10T10:33:19.567Z,18.50
2018-02-10T10:35:22.990Z,18.40
2018-02-10T10:37:26.376Z,18.40
2018-02-10T10:39:29.772Z,18.40
2018-02-10T10:41:33.150Z,18.30
2018-02-10T10:43:36.600Z,18.30
2018-02-10T10:45:40.883Z,18.40
2018-02-10T10:47:44.319Z,18.40
2018-02-10T10:49:47.713Z,18.40
2018-02-10T10:51:51.890Z,18.50
2018-02-10T10:53:55.336Z,18.50
2018-02-10T10:55:58.740Z,18.50
2018-02-10T10:58:02.127Z,18.60
2018-02-10T11:00:05.492Z,18.60
2018-02-10T11:02:08.865Z,18.70
2018-02-10T11:04:12.421Z,18.80
2018-02-10T11:06:15.805Z,18.90
2018-02-10T11:08:19.216Z,19.00
2018-02-10T11:10:22.588Z,19.00
2018-02-10T11:12:26.023Z,19.10
2018-02-10T11:14:29.422Z,19.20
2018-02-10T11:16:32.861Z,19.30
2018-02-10T11:18:36.255Z,19.40
2018-02-10T11:20:39.669Z,19.40
2018-02-10T11:22:43.259Z,19.40
2018-02-10T11:24:46.700Z,19.50
2018-02-10T11:26:50.860Z,19.50
2018-02-10T11:28:54.255Z,19.50
2018-02-10T11:30:57.663Z,19.50
2018-02-10T11:33:01.054Z,19.50
2018-02-10T11:35:04.460Z,19.50
2018-02-10T11:37:07.847Z,19.50
2018-02-10T11:39:11.218Z,19.50
2018-02-10T11:41:14.587Z,19.40
2018-02-10T11:43:18.034Z,19.40
2018-02-10T11:45:21.508Z,19.40
2018-02-10T11:47:24.916Z,19.40
2018-02-10T11:49:28.298Z,19.40
2018-02-10T11:51:31.694Z,19.40
2018-02-10T11:53:35.094Z,19.40
2018-02-10T11:55:38.594Z,19.40
2018-02-10T11:57:41.966Z,19.40
2018-02-10T11:59:45.425Z,19.30
2018-02-10T12:01:48.850Z,19.30
2018-02-10T12:03:52.244Z,19.30
2018-02-10T12:05:55.672Z,19.30
2018-02-10T12:07:59.914Z,19.20
2018-02-10T12:10:03.551Z,19.20
2018-02-10T12:12:07.134Z,19.20
2018-02-10T12:14:10.951Z,19.10
2018-02-10T12:16:15.835Z,18.90
2018-02-10T12:18:19.935Z,18.90
2018-02-10T12:20:23.330Z,18.90
2018-02-10T12:22:27.481Z,18.80
2018-02-10T12:24:31.611Z,18.80
2018-02-10T12:26:35.016Z,18.80
2018-02-10T12:28:39.162Z,18.70
2018-02-10T12:30:42.568Z,18.70
2018-02-10T12:32:45.972Z,18.70
2018-02-10T12:34:49.349Z,18.70
2018-02-10T12:36:52.739Z,18.60
2018-02-10T12:38:55.965Z,18.60
2018-02-10T12:40:59.388Z,18.60
2018-02-10T12:43:02.836Z,18.60
2018-02-10T12:45:06.199Z,18.60
2018-02-10T12:47:09.572Z,18.60
2018-02-10T12:49:27.675Z,18.50
2018-02-10T12:51:31.540Z,18.50
2018-02-10T12:53:34.929Z,18.50
2018-02-10T12:55:38.381Z,18.50
2018-02-10T12:57:42.038Z,18.50
2018-02-10T12:59:45.934Z,18.50
2018-02-10T13:01:49.468Z,18.50
2018-02-10T13:03:52.844Z,18.50
2018-02-10T13:05:56.307Z,18.50
2018-02-10T13:07:59.832Z,18.40
2018-02-10T13:10:03.280Z,18.40
2018-02-10T13:12:06.685Z,18.40
2018-02-10T13:14:10.127Z,18.40
2018-02-10T13:16:13.543Z,18.40
2018-02-10T13:18:17.856Z,18.40
2018-02-10T13:20:21.262Z,18.40
2018-02-10T13:22:24.793Z,18.40
2018-02-10T13:24:28.219Z,18.40
2018-02-10T13:26:31.638Z,18.30
2018-02-10T13:28:35.675Z,18.30
2018-02-10T13:30:39.034Z,18.30
2018-02-10T13:32:43.026Z,18.40
2018-02-10T13:34:46.473Z,18.40
2018-02-10T13:36:49.832Z,18.40
2018-02-10T13:38:53.980Z,18.50
2018-02-10T13:40:57.409Z,18.40
2018-02-10T13:43:00.815Z,18.50
2018-02-10T13:45:06.390Z,18.60
2018-02-10T13:47:09.790Z,18.60
2018-02-10T13:49:13.218Z,18.70
2018-02-10T13:51:16.613Z,18.80
2018-02-10T13:53:19.989Z,18.80
2018-02-10T13:55:23.391Z,18.90
2018-02-10T13:57:26.782Z,19.00
2018-02-10T13:59:30.138Z,19.00
2018-02-10T14:01:33.562Z,19.10
2018-02-10T14:03:36.933Z,19.20
2018-02-10T14:05:40.348Z,19.20
2018-02-10T14:07:43.794Z,19.20
2018-02-10T14:09:48.191Z,19.20
2018-02-10T14:11:52.399Z,19.30
2018-02-10T14:13:55.772Z,19.30
2018-02-10T14:15:59.381Z,19.30
2018-02-10T14:18:02.813Z,19.30
2018-02-10T14:20:06.209Z,19.30
2018-02-10T14:22:09.650Z,19.30
2018-02-10T14:24:13.844Z,19.30
2018-02-10T14:26:17.253Z,19.30
2018-02-10T14:28:20.679Z,19.30
2018-02-10T14:30:24.809Z,19.30
2018-02-10T14:32:28.222Z,19.20
2018-02-10T14:34:31.606Z,19.30
2018-02-10T14:36:35.121Z,19.30
2018-02-10T14:38:38.540Z,19.30
2018-02-10T14:40:41.939Z,19.30
2018-02-10T14:42:46.098Z,19.20
2018-02-10T14:44:49.524Z,19.20
2018-02-10T14:46:52.968Z,19.30
2018-02-10T14:48:56.372Z,19.20
2018-02-10T14:50:59.775Z,19.20
2018-02-10T14:53:03.215Z,19.20
2018-02-10T14:55:07.403Z,19.20
2018-02-10T14:57:10.769Z,19.10
2018-02-10T14:59:14.173Z,19.10
2018-02-10T15:01:17.559Z,19.10
2018-02-10T15:03:20.920Z,19.00
2018-02-10T15:05:24.348Z,18.90
2018-02-10T15:07:27.743Z,18.90
2018-02-10T15:09:31.905Z,18.80
2018-02-10T15:11:35.553Z,18.80
2018-02-10T15:13:38.925Z,18.70
2018-02-10T15:15:42.387Z,18.70
2018-02-10T15:17:45.763Z,18.70
2018-02-10T15:19:49.167Z,18.60
2018-02-10T15:21:53.329Z,18.60
2018-02-10T15:23:56.735Z,18.60
2018-02-10T15:26:00.717Z,18.50
2018-02-10T15:28:04.140Z,18.50
2018-02-10T15:30:18.967Z,18.50
2018-02-10T15:32:33.795Z,18.50
2018-02-10T15:34:43.261Z,18.40
2018-02-10T15:36:46.605Z,18.40
2018-02-10T15:38:50.023Z,18.40
2018-02-10T15:40:53.420Z,18.40
2018-02-10T15:42:56.836Z,18.40
2018-02-10T15:45:00.233Z,18.40
2018-02-10T15:47:03.625Z,18.40
2018-02-10T15:49:07.040Z,18.30
2018-02-10T15:51:10.472Z,18.30
2018-02-10T15:53:14.076Z,18.30
2018-02-10T15:55:18.267Z,18.20
2018-02-10T15:57:22.442Z,18.30
2018-02-10T15:59:25.867Z,18.20
2018-02-10T16:01:29.238Z,18.30
2018-02-10T16:03:32.621Z,18.20
2018-02-10T16:05:36.012Z,18.30
2018-02-10T16:07:39.217Z,18.30
2018-02-10T16:09:42.656Z,18.40
2018-02-10T16:11:46.037Z,18.40
2018-02-10T16:13:50.354Z,18.50
2018-02-10T16:15:54.509Z,18.60
2018-02-10T16:17:57.901Z,18.60
2018-02-10T16:20:01.317Z,18.70
2018-02-10T16:22:04.705Z,18.70
2018-02-10T16:24:08.056Z,18.80
2018-02-10T16:26:11.472Z,18.90
2018-02-10T16:28:14.831Z,18.90
2018-02-10T16:30:18.224Z,19.00
2018-02-10T16:32:21.653Z,19.00
2018-02-10T16:34:25.051Z,19.00
2018-02-10T16:36:28.448Z,19.00
2018-02-10T16:38:31.802Z,19.10
2018-02-10T16:40:35.193Z,19.10
2018-02-10T16:42:39.011Z,19.10
2018-02-10T16:44:42.427Z,19.10
2018-02-10T16:46:45.825Z,19.10
2018-02-10T16:48:49.184Z,19.10
2018-02-10T16:50:52.567Z,19.10
2018-02-10T16:52:55.961Z,19.10
2018-02-10T16:54:59.359Z,19.10
2018-02-10T16:57:02.804Z,19.10
2018-02-10T16:59:07.617Z,19.10
2018-02-10T17:01:11.247Z,19.10
2018-02-10T17:03:14.652Z,19.10
2018-02-10T17:05:18.347Z,19.00
2018-02-10T17:07:21.760Z,19.00
2018-02-10T17:09:25.164Z,19.00
2018-02-10T17:11:28.530Z,19.00
2018-02-10T17:13:31.958Z,19.00
2018-02-10T17:15:35.472Z,19.00
2018-02-10T17:17:38.842Z,19.00
2018-02-10T17:19:42.233Z,19.00
2018-02-10T17:21:45.626Z,18.90
2018-02-10T17:23:49.013Z,18.90
2018-02-10T17:25:52.413Z,18.90
2018-02-10T17:27:55.786Z,18.90
2018-02-10T17:29:59.201Z,18.80
2018-02-10T17:32:02.564Z,18.80
2018-02-10T17:34:05.964Z,18.80
2018-02-10T17:36:09.364Z,18.80
2018-02-10T17:38:12.729Z,18.80
2018-02-10T17:40:16.149Z,18.80
2018-02-10T17:42:19.547Z,18.80
2018-02-10T17:44:22.891Z,18.80
2018-02-10T17:46:26.276Z,18.80
2018-02-10T17:48:30.405Z,18.80
2018-02-10T17:50:33.777Z,18.70
2018-02-10T17:52:37.940Z,18.80
2018-02-10T17:54:41.310Z,18.70
2018-02-10T17:56:44.713Z,18.80
2018-02-10T17:58:48.072Z,18.70
2018-02-10T18:00:52.250Z,18.70
2018-02-10T18:02:56.603Z,18.70
2018-02-10T18:04:59.990Z,18.70
2018-02-10T18:07:03.923Z,18.60
2018-02-10T18:09:07.308Z,18.60
2018-02-10T18:11:10.851Z,18.50
2018-02-10T18:13:15.119Z,18.50
2018-02-10T18:15:18.571Z,18.50
2018-02-10T18:17:22.729Z,18.50
2018-02-10T18:19:26.148Z,18.50
2018-02-10T18:21:29.526Z,18.50
2018-02-10T18:23:32.926Z,18.50
2018-02-10T18:25:36.323Z,18.50
2018-02-10T18:27:39.719Z,18.50
2018-02-10T18:29:43.131Z,18.50
2018-02-10T18:31:46.515Z,18.50
2018-02-10T18:33:49.969Z,18.50
2018-02-10T18:35:53.352Z,18.50
2018-02-10T18:37:56.715Z,18.50
2018-02-10T18:40:00.130Z,18.50
2018-02-10T18:42:03.503Z,18.50
2018-02-10T18:44:07.669Z,18.60
2018-02-10T18:46:11.057Z,18.60
2018-02-10T18:48:14.431Z,18.60
2018-02-10T18:50:17.841Z,18.60
2018-02-10T18:52:21.218Z,18.70
2018-02-10T18:54:24.750Z,18.70
2018-02-10T18:56:28.174Z,18.80
2018-02-10T18:58:31.544Z,18.80
2018-02-10T19:00:34.959Z,18.80
2018-02-10T19:02:38.341Z,18.90
2018-02-10T19:04:42.503Z,18.90
2018-02-10T19:06:45.906Z,18.90
2018-02-10T19:08:49.302Z,18.90
2018-02-10T19:10:52.825Z,19.00
2018-02-10T19:12:56.189Z,19.00
2018-02-10T19:14:59.417Z,19.00
2018-02-10T19:17:02.898Z,19.10
2018-02-10T19:19:07.037Z,19.10
2018-02-10T19:21:10.411Z,19.00
2018-02-10T19:23:14.655Z,19.10
2018-02-10T19:25:18.064Z,19.10
2018-02-10T19:27:21.545Z,19.10
2018-02-10T19:29:24.940Z,19.10
2018-02-10T19:31:28.428Z,19.10
2018-02-10T19:33:32.313Z,19.00
2018-02-10T19:35:35.699Z,19.00
2018-02-10T19:37:39.834Z,19.00
2018-02-10T19:39:43.273Z,19.00
2018-02-10T19:41:46.722Z,19.00
2018-02-10T19:43:50.144Z,18.90
2018-02-10T19:45:53.719Z,19.00
2018-02-10T19:47:57.526Z,19.00
2018-02-10T19:50:00.917Z,19.00
2018-02-10T19:52:04.296Z,19.00
2018-02-10T19:54:08.095Z,18.90
2018-02-10T19:56:11.491Z,18.90
2018-02-10T19:58:14.881Z,18.90
2018-02-10T20:00:18.445Z,18.90
2018-02-10T20:02:22.632Z,18.90
2018-02-10T20:04:26.085Z,18.80
2018-02-10T20:06:29.668Z,18.80
2018-02-10T20:08:33.404Z,18.80
2018-02-10T20:10:36.798Z,18.80
2018-02-10T20:12:40.343Z,18.80
2018-02-10T20:14:44.598Z,18.80
2018-02-10T20:16:47.955Z,18.80
2018-02-10T20:18:51.335Z,18.80
2018-02-10T20:20:55.853Z,18.70
2018-02-10T20:22:59.363Z,18.80
2018-02-10T20:25:03.561Z,18.70
2018-02-10T20:27:07.830Z,18.70
2018-02-10T20:29:11.391Z,18.70
2018-02-10T20:31:14.796Z,18.70
2018-02-10T20:33:18.193Z,18.60
2018-02-10T20:35:21.838Z,18.60
2018-02-10T20:37:25.197Z,18.60
2018-02-10T20:39:28.547Z,18.60
2018-02-10T20:41:32.714Z,18.60
2018-02-10T20:43:36.079Z,18.60
2018-02-10T20:45:39.441Z,18.60
2018-02-10T20:47:43.804Z,18.60
2018-02-10T20:49:47.173Z,18.50
2018-02-10T20:51:50.806Z,18.50
2018-02-10T20:53:54.437Z,18.50
2018-02-10T20:55:57.846Z,18.50
2018-02-10T20:58:01.287Z,18.50
2018-02-10T21:00:04.914Z,18.50
2018-02-10T21:02:09.118Z,18.50
2018-02-10T21:04:13.273Z,18.50
2018-02-10T21:06:16.648Z,18.50
2018-02-10T21:08:20.104Z,18.50
2018-02-10T21:10:23.497Z,18.50
2018-02-10T21:12:26.905Z,18.50
2018-02-10T21:14:31.078Z,18.50
2018-02-10T21:16:34.620Z,18.50
2018-02-10T21:18:38.776Z,18.50
2018-02-10T21:20:42.187Z,18.50
2018-02-10T21:22:45.617Z,18.50
2018-02-10T21:24:49.748Z,18.40
2018-02-10T21:26:53.106Z,18.40
2018-02-10T21:28:57.254Z,18.30
2018-02-10T21:31:00.636Z,18.30
2018-02-10T21:33:04.043Z,18.20
2018-02-10T21:35:07.455Z,18.20
2018-02-10T21:37:10.813Z,18.10
2018-02-10T21:39:14.203Z,18.10
2018-02-10T21:41:17.749Z,18.00
2018-02-10T21:43:21.951Z,17.90
2018-02-10T21:45:25.398Z,17.90
2018-02-10T21:47:29.543Z,17.80
2018-02-10T21:49:32.729Z,17.80
2018-02-10T21:51:36.094Z,17.80
2018-02-10T21:53:39.600Z,17.70
2018-02-10T21:55:42.994Z,17.70
2018-02-10T21:57:46.382Z,17.60
2018-02-10T21:59:49.749Z,17.60
2018-02-10T22:01:53.883Z,17.50
2018-02-10T22:03:57.302Z,17.50
2018-02-10T22:06:00.667Z,17.40
2018-02-10T22:08:04.061Z,17.40
2018-02-10T22:10:07.463Z,17.40
2018-02-10T22:12:10.854Z,17.30
2018-02-10T22:14:14.268Z,17.30
2018-02-10T22:16:17.676Z,17.30
2018-02-10T22:18:21.066Z,17.30
2018-02-10T22:20:24.494Z,17.20
2018-02-10T22:22:28.643Z,17.20
2018-02-10T22:24:32.057Z,17.10
2018-02-10T22:26:35.459Z,17.10
2018-02-10T22:28:38.870Z,17.10
2018-02-10T22:30:43.005Z,17.00
2018-02-10T22:32:46.364Z,17.00
2018-02-10T22:34:49.783Z,17.00
2018-02-10T22:36:53.174Z,16.90
2018-02-10T22:38:57.362Z,16.90
2018-02-10T22:41:01.530Z,16.90
2018-02-10T22:43:04.917Z,16.80
2018-02-10T22:45:08.325Z,16.80
2018-02-10T22:47:11.691Z,16.80
2018-02-10T22:49:15.088Z,16.80
2018-02-10T22:51:18.491Z,16.70
2018-02-10T22:53:21.861Z,16.70
2018-02-10T22:55:25.275Z,16.70
2018-02-10T22:57:28.657Z,16.70
2018-02-10T22:59:32.050Z,16.70
2018-02-10T23:01:35.453Z,16.60
2018-02-10T23:03:38.814Z,16.60
2018-02-10T23:05:42.273Z,16.60
2018-02-10T23:07:45.647Z,16.60
2018-02-10T23:09:49.012Z,16.60
2018-02-10T23:11:52.386Z,16.50
2018-02-10T23:13:55.793Z,16.50
2018-02-10T23:15:59.187Z,16.50
2018-02-10T23:18:02.556Z,16.50
2018-02-10T23:20:05.922Z,16.50
2018-02-10T23:22:09.347Z,16.40
2018-02-10T23:24:12.758Z,16.40
2018-02-10T23:26:16.153Z,16.40
2018-02-10T23:28:19.549Z,16.40
2018-02-10T23:30:22.940Z,16.30
2018-02-10T23:32:26.322Z,16.30
2018-02-10T23:34:29.689Z,16.30
2018-02-10T23:36:33.875Z,16.30
2018-02-10T23:38:37.261Z,16.30
2018-02-10T23:40:40.642Z,16.20
2018-02-10T23:42:44.052Z,16.20
2018-02-10T23:44:47.440Z,16.20
2018-02-10T23:46:50.858Z,16.20
2018-02-10T23:48:54.231Z,16.20
2018-02-10T23:50:57.624Z,16.10
2018-02-10T23:53:00.986Z,16.10
2018-02-10T23:55:04.366Z,16.10
2018-02-10T23:57:07.777Z,16.10
2018-02-10T23:59:11.152Z,16.10
